PWSweather.com
Personal Weather Stations
Station Observations

SkegnessGB

Lat: 53.147585, Lon: 0.345774

Elevation: 18

Station Type: Fine Offset WH3080

http://www.skegnessweather.info/

Latest ConditionsUpdated 8:10:00 AM GMT Monday, Nov 19, 2018
Currently Today's Max Today's Min Today's Average
Temperature 47.7°F8.7°C 48.4°F9.1°C 46.6°F8.1°C 47.2°F8.4°C
Dew Point 39.1°F3.9°C 40.1°F4.5°C 33.4°F0.8°C 36.6°F2.6°C
Winds 9.1 mph NNE14.6 kmh NNE 10.5 mph -16.9 kmh - - 7.4 mph 11.9 kmh
Wind Gusts 12.5 mph20.1 kmh 18.5 mph29.8 kmh - -
Humidity 72% 77% 60% 67%
Pressure 30.28 in1025.4 mb 30.36 in1028.1 mb 30.27 in1025.1 mb -
Hour Temp Dew Point Humidity Winds Wind Gusts Pressure Precip Precip Rate Daily Precip Total
08:10 AM 47.7°F8.7°C 39.1°F3.9°C 72% 9.1 mph NNE14.6 kmh NNE 12.5 mph20.1 kmh 30.28 in1025.4 mb 0.00 in0.0 mm 0.00 in0.0 mm 0.00 in0.0 mm
08:00 AM 47.3°F8.5°C 39.1°F3.9°C 73% 7.7 mph NNE12.4 kmh NNE 9.1 mph14.6 kmh 30.27 in1025.1 mb 0.00 in0.0 mm 0.00 in0.0 mm 0.00 in0.0 mm
07:50 AM 46.8°F8.2°C 38.2°F3.4°C 72% 6.2 mph N10.0 kmh N 7.6 mph12.2 kmh 30.28 in1025.4 mb 0.00 in0.0 mm 0.00 in0.0 mm 0.00 in0.0 mm
07:40 AM 46.9°F8.3°C 38.0°F3.3°C 71% 6.3 mph NE10.1 kmh NE 6.6 mph10.6 kmh 30.29 in1025.7 mb 0.00 in0.0 mm 0.00 in0.0 mm 0.00 in0.0 mm
07:30 AM 47.5°F8.6°C 36.7°F2.6°C 66% 6.0 mph NNE9.7 kmh NNE 7.6 mph12.2 kmh 30.29 in1025.7 mb 0.00 in0.0 mm 0.00 in0.0 mm 0.00 in0.0 mm
07:20 AM 47.3°F8.5°C 36.5°F2.5°C 66% 4.6 mph NNE7.4 kmh NNE 7.6 mph12.2 kmh 30.29 in1025.7 mb 0.00 in0.0 mm 0.00 in0.0 mm 0.00 in0.0 mm
07:10 AM 47.3°F8.5°C 35.7°F2.1°C 64% 6.7 mph NE10.8 kmh NE 6.6 mph10.6 kmh 30.28 in1025.4 mb 0.00 in0.0 mm 0.00 in0.0 mm 0.00 in0.0 mm
07:00 AM 47.3°F8.5°C 35.3°F1.8°C 63% 6.2 mph NNW10.0 kmh NNW 8.4 mph13.5 kmh 30.28 in1025.4 mb 0.00 in0.0 mm 0.00 in0.0 mm 0.00 in0.0 mm
06:50 AM 47.3°F8.5°C 35.7°F2.1°C 64% 5.6 mph WNW9.0 kmh WNW 8.4 mph13.5 kmh 30.29 in1025.7 mb 0.00 in0.0 mm 0.00 in0.0 mm 0.00 in0.0 mm
06:40 AM 47.3°F8.5°C 35.7°F2.1°C 64% 5.9 mph N9.5 kmh N 11.8 mph19.0 kmh 30.28 in1025.4 mb 0.00 in0.0 mm 0.00 in0.0 mm 0.00 in0.0 mm
06:30 AM 47.3°F8.5°C 35.3°F1.8°C 63% 5.9 mph N9.5 kmh N 8.4 mph13.5 kmh 30.29 in1025.7 mb 0.00 in0.0 mm 0.00 in0.0 mm 0.00 in0.0 mm
06:20 AM 47.3°F8.5°C 35.3°F1.8°C 63% 5.0 mph NW8.0 kmh NW 7.6 mph12.2 kmh 30.30 in1026.1 mb 0.00 in0.0 mm 0.00 in0.0 mm 0.00 in0.0 mm
06:10 AM 47.3°F8.5°C 34.9°F1.6°C 62% 7.4 mph N11.9 kmh N 8.4 mph13.5 kmh 30.29 in1025.7 mb 0.00 in0.0 mm 0.00 in0.0 mm 0.00 in0.0 mm
06:00 AM 47.1°F8.4°C 34.8°F1.6°C 62% 7.3 mph N11.7 kmh N 10.8 mph17.4 kmh 30.29 in1025.7 mb 0.00 in0.0 mm 0.00 in0.0 mm 0.00 in0.0 mm
05:50 AM 47.3°F8.5°C 34.9°F1.6°C 62% 5.8 mph N9.3 kmh N 7.6 mph12.2 kmh 30.30 in1026.1 mb 0.00 in0.0 mm 0.00 in0.0 mm 0.00 in0.0 mm
05:40 AM 47.3°F8.5°C 34.5°F1.4°C 61% 8.4 mph N13.5 kmh N 10.8 mph17.4 kmh 30.30 in1026.1 mb 0.00 in0.0 mm 0.00 in0.0 mm 0.00 in0.0 mm
05:30 AM 47.3°F8.5°C 34.5°F1.4°C 61% 8.7 mph N14.0 kmh N 10.1 mph16.3 kmh 30.30 in1026.1 mb 0.00 in0.0 mm 0.00 in0.0 mm 0.00 in0.0 mm
05:20 AM 47.3°F8.5°C 34.5°F1.4°C 61% 9.1 mph N14.6 kmh N 12.5 mph20.1 kmh 30.30 in1026.1 mb 0.00 in0.0 mm 0.00 in0.0 mm 0.00 in0.0 mm
05:10 AM 47.1°F8.4°C 34.8°F1.6°C 62% 8.1 mph N13.0 kmh N 9.1 mph14.6 kmh 30.30 in1026.1 mb 0.00 in0.0 mm 0.00 in0.0 mm 0.00 in0.0 mm
05:00 AM 47.3°F8.5°C 34.5°F1.4°C 61% 10.5 mph N16.9 kmh N 14.3 mph23.0 kmh 30.30 in1026.1 mb 0.00 in0.0 mm 0.00 in0.0 mm 0.00 in0.0 mm
04:50 AM 47.5°F8.6°C 35.5°F1.9°C 63% 9.3 mph NE15.0 kmh NE 18.5 mph29.8 kmh 30.31 in1026.4 mb 0.00 in0.0 mm 0.00 in0.0 mm 0.00 in0.0 mm
04:40 AM 47.3°F8.5°C 35.7°F2.1°C 64% 6.8 mph NNE10.9 kmh NNE 15.0 mph24.1 kmh 30.31 in1026.4 mb 0.00 in0.0 mm 0.00 in0.0 mm 0.00 in0.0 mm
04:30 AM 47.1°F8.4°C 35.2°F1.8°C 63% 5.5 mph N8.9 kmh N 7.6 mph12.2 kmh 30.31 in1026.4 mb 0.00 in0.0 mm 0.00 in0.0 mm 0.00 in0.0 mm
04:20 AM 46.9°F8.3°C 34.6°F1.4°C 62% 8.5 mph N13.7 kmh N 9.1 mph14.6 kmh 30.32 in1026.8 mb 0.00 in0.0 mm 0.00 in0.0 mm 0.00 in0.0 mm
04:10 AM 46.8°F8.2°C 34.4°F1.3°C 62% 7.2 mph N11.6 kmh N 8.4 mph13.5 kmh 30.31 in1026.4 mb 0.00 in0.0 mm 0.00 in0.0 mm 0.00 in0.0 mm
04:00 AM 46.8°F8.2°C 34.0°F1.1°C 61% 9.4 mph NNE15.1 kmh NNE 14.3 mph23.0 kmh 30.32 in1026.8 mb 0.00 in0.0 mm 0.00 in0.0 mm 0.00 in0.0 mm
03:50 AM 46.6°F8.1°C 33.4°F0.8°C 60% 10.0 mph ENE16.1 kmh ENE 12.5 mph20.1 kmh 30.32 in1026.8 mb 0.00 in0.0 mm 0.00 in0.0 mm 0.00 in0.0 mm
03:40 AM 46.8°F8.2°C 34.4°F1.3°C 62% 7.7 mph N12.4 kmh N 13.3 mph21.4 kmh 30.32 in1026.8 mb 0.00 in0.0 mm 0.00 in0.0 mm 0.00 in0.0 mm
03:30 AM 46.8°F8.2°C 34.0°F1.1°C 61% 9.3 mph NNE15.0 kmh NNE 13.3 mph21.4 kmh 30.32 in1026.8 mb 0.00 in0.0 mm 0.00 in0.0 mm 0.00 in0.0 mm
03:20 AM 46.8°F8.2°C 34.0°F1.1°C 61% 10.1 mph NW16.3 kmh NW 14.3 mph23.0 kmh 30.32 in1026.8 mb 0.00 in0.0 mm 0.00 in0.0 mm 0.00 in0.0 mm
03:10 AM 46.9°F8.3°C 35.0°F1.7°C 63% 8.3 mph NE13.4 kmh NE 11.8 mph19.0 kmh 30.32 in1026.8 mb 0.00 in0.0 mm 0.00 in0.0 mm 0.00 in0.0 mm
03:00 AM 47.1°F8.4°C 35.6°F2.0°C 64% 9.0 mph NNE14.5 kmh NNE 13.3 mph21.4 kmh 30.33 in1027.1 mb 0.00 in0.0 mm 0.00 in0.0 mm 0.00 in0.0 mm
02:50 AM 47.3°F8.5°C 35.7°F2.1°C 64% 6.9 mph NNE11.1 kmh NNE 13.3 mph21.4 kmh 30.32 in1026.8 mb 0.00 in0.0 mm 0.00 in0.0 mm 0.00 in0.0 mm
02:40 AM 47.3°F8.5°C 35.7°F2.1°C 64% 7.4 mph NW11.9 kmh NW 10.1 mph16.3 kmh 30.33 in1027.1 mb 0.00 in0.0 mm 0.00 in0.0 mm 0.00 in0.0 mm
02:30 AM 47.5°F8.6°C 36.3°F2.4°C 65% 8.8 mph ENE14.2 kmh ENE 10.8 mph17.4 kmh 30.33 in1027.1 mb 0.00 in0.0 mm 0.00 in0.0 mm 0.00 in0.0 mm
02:20 AM 47.8°F8.8°C 36.6°F2.6°C 65% 8.7 mph NNE14.0 kmh NNE 16.7 mph26.9 kmh 30.33 in1027.1 mb 0.00 in0.0 mm 0.00 in0.0 mm 0.00 in0.0 mm
02:10 AM 47.8°F8.8°C 36.2°F2.3°C 64% 6.9 mph N11.1 kmh N 10.1 mph16.3 kmh 30.33 in1027.1 mb 0.00 in0.0 mm 0.00 in0.0 mm 0.00 in0.0 mm
02:00 AM 47.7°F8.7°C 38.4°F3.6°C 70% 7.4 mph N11.9 kmh N 13.3 mph21.4 kmh 30.34 in1027.4 mb 0.00 in0.0 mm 0.00 in0.0 mm 0.00 in0.0 mm
01:50 AM 47.5°F8.6°C 39.6°F4.2°C 74% 6.7 mph NNE10.8 kmh NNE 9.1 mph14.6 kmh 30.34 in1027.4 mb 0.00 in0.0 mm 0.00 in0.0 mm 0.00 in0.0 mm
01:40 AM 47.1°F8.4°C 39.6°F4.2°C 75% 7.7 mph N12.4 kmh N 10.1 mph16.3 kmh 30.33 in1027.1 mb 0.00 in0.0 mm 0.00 in0.0 mm 0.00 in0.0 mm
01:30 AM 46.9°F8.3°C 39.8°F4.3°C 76% 5.4 mph N8.7 kmh N 9.1 mph14.6 kmh 30.35 in1027.8 mb 0.00 in0.0 mm 0.00 in0.0 mm 0.00 in0.0 mm
01:20 AM 46.8°F8.2°C 39.6°F4.2°C 76% 6.5 mph N10.5 kmh N 9.1 mph14.6 kmh 30.35 in1027.8 mb 0.00 in0.0 mm 0.00 in0.0 mm 0.00 in0.0 mm
01:10 AM 46.8°F8.2°C 39.6°F4.2°C 76% 4.4 mph SSW7.1 kmh SSW 5.9 mph9.5 kmh 30.35 in1027.8 mb 0.00 in0.0 mm 0.00 in0.0 mm 0.00 in0.0 mm
01:00 AM 46.8°F8.2°C 39.6°F4.2°C 76% 5.6 mph N9.0 kmh N 7.6 mph12.2 kmh 30.35 in1027.8 mb 0.00 in0.0 mm 0.00 in0.0 mm 0.00 in0.0 mm
12:50 AM 46.9°F8.3°C 40.1°F4.5°C 77% 6.5 mph NE10.5 kmh NE 9.1 mph14.6 kmh 30.35 in1027.8 mb 0.00 in0.0 mm 0.00 in0.0 mm 0.00 in0.0 mm
12:40 AM 46.9°F8.3°C 39.8°F4.3°C 76% 8.3 mph NE13.4 kmh NE 9.1 mph14.6 kmh 30.35 in1027.8 mb 0.00 in0.0 mm 0.00 in0.0 mm 0.00 in0.0 mm
12:30 AM 47.3°F8.5°C 39.8°F4.3°C 75% 6.4 mph SSW10.3 kmh SSW 8.4 mph13.5 kmh 30.35 in1027.8 mb 0.00 in0.0 mm 0.00 in0.0 mm 0.00 in0.0 mm
12:20 AM 47.8°F8.8°C 39.6°F4.2°C 73% 7.0 mph W11.3 kmh W 10.8 mph17.4 kmh 30.36 in1028.1 mb 0.00 in0.0 mm 0.00 in0.0 mm 0.00 in0.0 mm
12:10 AM 48.2°F9.0°C 39.6°F4.2°C 72% 9.0 mph N14.5 kmh N 14.3 mph23.0 kmh 30.36 in1028.1 mb 0.00 in0.0 mm 0.00 in0.0 mm 0.00 in0.0 mm
12:00 AM 48.4°F9.1°C 39.4°F4.1°C 71% 8.1 mph N13.0 kmh N 10.8 mph17.4 kmh 30.36 in1028.1 mb 0.00 in0.0 mm 0.00 in0.0 mm 0.00 in0.0 mm